Time;durP1;ratioP1;P1;durP2;ratioP2;P2;SDS_P1;SDS_P2;PMS_P1;PMS_P2;Temp;Humidity;BMP_temperature;BMP_pressure;BME280_temperature;BME280_humidity;BME280_pressure;Samples;Min_cycle;Max_cycle;Signal;HPM_P1;HPM_P2
2024/04/25 00:00:14;;;;;;;7.80;1.00;;;11.70;82.10;;;;;;5487994;25;20461;-47
2024/04/25 00:02:44;;;;;;;1.57;1.17;;;11.70;81.90;;;;;;5475358;25;20878;-46
2024/04/25 00:05:14;;;;;;;1.67;1.40;;;11.70;82.00;;;;;;5471655;25;20521;-47
2024/04/25 00:07:44;;;;;;;3.00;1.03;;;11.70;82.00;;;;;;5465154;25;20449;-47
2024/04/25 00:10:16;;;;;;;2.10;1.20;;;11.70;82.10;;;;;;5472899;25;20896;-47
2024/04/25 00:12:46;;;;;;;1.20;1.10;;;11.70;82.10;;;;;;5464212;25;20457;-47
2024/04/25 00:15:16;;;;;;;1.30;1.07;;;11.70;82.10;;;;;;5486084;25;20447;-47
2024/04/25 00:17:46;;;;;;;1.20;0.80;;;11.70;82.10;;;;;;5465321;25;20567;-47
2024/04/25 00:20:16;;;;;;;1.60;1.07;;;11.70;82.10;;;;;;5476151;25;20522;-47
2024/04/25 00:22:46;;;;;;;3.10;1.20;;;11.70;82.10;;;;;;5463287;26;20452;-47
2024/04/25 00:25:19;;;;;;;2.40;1.47;;;11.70;82.20;;;;;;5475238;25;20528;-47
2024/04/25 00:27:49;;;;;;;5.37;1.60;;;11.70;82.20;;;;;;5459888;25;20521;-47
2024/04/25 00:30:19;;;;;;;1.80;1.13;;;11.70;82.10;;;;;;5475519;25;20810;-47
2024/04/25 00:32:52;;;;;;;1.60;1.23;;;11.70;82.20;;;;;;5429174;26;20950;-47
2024/04/25 00:35:22;;;;;;;3.57;1.17;;;11.70;82.20;;;;;;5473371;25;20523;-47
2024/04/25 00:37:52;;;;;;;3.03;1.27;;;11.70;82.20;;;;;;5473476;25;21031;-47
2024/04/25 00:40:24;;;;;;;1.73;1.13;;;11.70;82.20;;;;;;5472932;25;21097;-47
2024/04/25 00:42:57;;;;;;;1.40;1.17;;;11.70;82.30;;;;;;5463202;25;20473;-47
2024/04/25 00:45:27;;;;;;;1.77;1.10;;;11.70;82.10;;;;;;5469053;25;20484;-47
2024/04/25 00:47:57;;;;;;;1.27;1.17;;;11.70;82.20;;;;;;5466866;25;20889;-48
2024/04/25 00:50:26;;;;;;;1.60;1.10;;;11.70;82.20;;;;;;5461171;26;20477;-47
2024/04/25 00:52:59;;;;;;;2.00;1.20;;;11.70;82.40;;;;;;5454036;25;20511;-48
2024/04/25 00:55:32;;;;;;;1.70;0.80;;;11.70;82.20;;;;;;5473595;25;20502;-49
2024/04/25 00:58:05;;;;;;;1.30;1.20;;;11.60;82.20;;;;;;5485760;25;20585;-50
2024/04/25 01:00:37;;;;;;;1.53;1.03;;;11.70;82.30;;;;;;5471006;25;20471;-47
2024/04/25 01:03:08;;;;;;;1.63;1.50;;;11.70;82.40;;;;;;5463921;25;20878;-48
2024/04/25 01:05:40;;;;;;;1.40;0.87;;;11.60;82.30;;;;;;5468882;25;21132;-48
2024/04/25 01:08:10;;;;;;;3.43;1.03;;;11.70;82.40;;;;;;5466453;25;20533;-47
2024/04/25 01:10:43;;;;;;;2.50;1.33;;;11.70;82.30;;;;;;5467539;25;20469;-48
2024/04/25 01:13:13;;;;;;;3.40;1.30;;;11.60;82.20;;;;;;5466609;25;20552;-47
2024/04/25 01:15:43;;;;;;;2.97;1.70;;;11.70;82.30;;;;;;5465204;25;20458;-48
2024/04/25 01:18:15;;;;;;;1.83;1.17;;;11.60;82.20;;;;;;5468356;25;20509;-50
2024/04/25 01:20:45;;;;;;;3.43;1.50;;;11.60;82.20;;;;;;5459780;25;20466;-47
2024/04/25 01:23:16;;;;;;;3.03;1.30;;;11.60;82.20;;;;;;5468187;25;20465;-47
2024/04/25 01:25:49;;;;;;;2.20;1.13;;;11.60;82.00;;;;;;5464690;25;20465;-49
2024/04/25 01:28:19;;;;;;;1.80;1.13;;;11.60;82.10;;;;;;5466631;25;20469;-48
2024/04/25 01:30:50;;;;;;;3.10;1.50;;;11.60;82.20;;;;;;5487930;25;20597;-48
2024/04/25 01:33:19;;;;;;;3.03;1.40;;;11.60;82.20;;;;;;5458054;26;20446;-47
2024/04/25 01:35:49;;;;;;;1.90;1.30;;;11.60;82.20;;;;;;5452229;26;20507;-47
2024/04/25 01:38:20;;;;;;;1.77;0.87;;;11.60;82.20;;;;;;5443331;26;20471;-48
2024/04/25 01:40:52;;;;;;;2.03;1.20;;;11.60;82.20;;;;;;5459607;25;20530;-48
2024/04/25 01:43:22;;;;;;;3.10;1.50;;;11.60;82.10;;;;;;5475576;25;20894;-49
2024/04/25 01:45:52;;;;;;;1.53;1.17;;;11.60;82.10;;;;;;5464995;25;20466;-51
2024/04/25 01:48:22;;;;;;;1.57;1.13;;;11.60;82.10;;;;;;5473432;25;21483;-48
2024/04/25 01:50:52;;;;;;;1.53;1.03;;;11.50;82.10;;;;;;5463694;25;20582;-48
2024/04/25 01:53:23;;;;;;;4.20;1.33;;;11.50;82.20;;;;;;5474430;25;20809;-47
2024/04/25 01:55:56;;;;;;;1.77;1.33;;;11.50;82.20;;;;;;5466467;25;20471;-47
2024/04/25 01:58:25;;;;;;;1.33;1.13;;;11.50;82.00;;;;;;5459370;25;21679;-48
2024/04/25 02:00:55;;;;;;;1.37;0.80;;;11.50;82.20;;;;;;5465595;25;20470;-47
2024/04/25 02:03:25;;;;;;;1.90;1.03;;;11.50;82.20;;;;;;5468803;25;20562;-48
2024/04/25 02:05:55;;;;;;;2.93;1.47;;;11.50;82.40;;;;;;5445615;26;20508;-47
2024/04/25 02:08:25;;;;;;;1.47;1.10;;;11.50;82.20;;;;;;5448399;26;20472;-49
2024/04/25 02:10:57;;;;;;;2.20;1.20;;;11.50;82.30;;;;;;5459288;25;20533;-49
2024/04/25 02:13:27;;;;;;;1.90;1.40;;;11.60;82.40;;;;;;5470145;25;20457;-48
2024/04/25 02:15:57;;;;;;;1.80;1.20;;;11.50;82.00;;;;;;5465507;25;20569;-49
2024/04/25 02:18:27;;;;;;;2.97;1.20;;;11.50;82.30;;;;;;5466178;25;20513;-48
2024/04/25 02:26:31;;;;;;;1.43;0.93;;;11.50;82.10;;;;;;5474721;25;20540;-47
2024/04/25 02:29:00;;;;;;;2.20;1.40;;;11.50;82.10;;;;;;5459237;25;20468;-47
2024/04/25 02:31:32;;;;;;;3.23;1.13;;;11.50;82.20;;;;;;5469180;25;20481;-49
2024/04/25 02:34:02;;;;;;;3.20;1.30;;;11.50;82.30;;;;;;5450322;26;20603;-48
2024/04/25 02:36:32;;;;;;;1.17;1.00;;;11.50;82.30;;;;;;5468126;25;20471;-48
2024/04/25 02:39:02;;;;;;;1.90;0.97;;;11.50;82.20;;;;;;5470995;25;20513;-48
2024/04/25 02:41:34;;;;;;;1.70;1.07;;;11.50;82.10;;;;;;5469786;25;20462;-48
2024/04/25 02:44:05;;;;;;;1.93;0.90;;;11.50;82.00;;;;;;5468291;25;20462;-48
2024/04/25 02:46:32;;;;;;;1.83;1.20;;;11.50;82.30;;;;;;5466185;25;20913;-47
2024/04/25 02:49:02;;;;;;;2.70;1.53;;;11.50;82.20;;;;;;5441372;26;21146;-47
2024/04/25 02:51:31;;;;;;;3.73;2.27;;;11.40;82.10;;;;;;5462901;25;20880;-47
2024/04/25 02:54:02;;;;;;;3.23;1.30;;;11.40;82.10;;;;;;5469138;25;20462;-48
2024/04/25 02:56:31;;;;;;;2.23;1.37;;;11.40;82.00;;;;;;5474114;25;20533;-48
2024/04/25 02:59:01;;;;;;;1.77;1.10;;;11.40;82.10;;;;;;5466130;25;21078;-47
2024/04/25 03:01:29;;;;;;;2.40;1.40;;;11.40;82.10;;;;;;5472330;25;20526;-47
2024/04/25 03:03:58;;;;;;;2.27;1.50;;;11.40;82.10;;;;;;5473626;25;20473;-48
2024/04/25 03:06:26;;;;;;;1.70;1.33;;;11.40;82.10;;;;;;5471805;25;20455;-47
2024/04/25 03:08:55;;;;;;;1.90;1.40;;;11.40;82.20;;;;;;5489293;25;20453;-48
2024/04/25 03:11:23;;;;;;;3.30;1.27;;;11.40;82.20;;;;;;5465483;25;20467;-48
2024/04/25 03:13:55;;;;;;;1.70;1.00;;;11.40;82.00;;;;;;5432580;26;20522;-50
2024/04/25 03:16:22;;;;;;;2.80;1.20;;;11.40;82.30;;;;;;5480654;25;20508;-48
2024/04/25 03:18:52;;;;;;;1.97;1.43;;;11.40;82.10;;;;;;5471296;25;20474;-48
2024/04/25 03:21:19;;;;;;;2.40;1.20;;;11.40;82.20;;;;;;5451697;25;20555;-49
2024/04/25 03:23:49;;;;;;;1.40;0.87;;;11.40;82.30;;;;;;5458773;26;20459;-48
2024/04/25 03:26:16;;;;;;;2.33;1.43;;;11.40;82.40;;;;;;5466918;25;20458;-48
2024/04/25 03:28:46;;;;;;;1.77;1.10;;;11.40;82.30;;;;;;5468957;25;20551;-49
2024/04/25 03:31:19;;;;;;;1.70;1.00;;;11.40;82.40;;;;;;5448847;25;20823;-51
2024/04/25 03:33:47;;;;;;;1.77;1.20;;;11.40;82.40;;;;;;5461649;25;20790;-48
2024/04/25 03:36:17;;;;;;;5.67;1.40;;;11.40;82.50;;;;;;5454210;25;21074;-50
2024/04/25 03:38:47;;;;;;;1.63;1.10;;;11.40;82.50;;;;;;5455919;26;20459;-47
2024/04/25 03:41:17;;;;;;;1.70;0.80;;;11.40;82.60;;;;;;5456103;25;20856;-48
2024/04/25 03:43:47;;;;;;;1.43;1.00;;;11.40;82.80;;;;;;5455467;26;20458;-47
2024/04/25 03:46:20;;;;;;;1.30;1.00;;;11.40;82.50;;;;;;5462138;25;20590;-47
2024/04/25 03:48:49;;;;;;;3.00;1.17;;;11.30;82.30;;;;;;5454832;26;20479;-48
2024/04/25 03:51:19;;;;;;;1.67;1.20;;;11.40;82.50;;;;;;5467856;25;20539;-48
2024/04/25 03:53:49;;;;;;;1.93;1.20;;;11.30;82.50;;;;;;5472487;25;20565;-47
2024/04/25 03:56:19;;;;;;;1.93;1.10;;;11.40;82.50;;;;;;5470587;25;20510;-47
2024/04/25 03:58:49;;;;;;;1.73;1.47;;;11.40;82.60;;;;;;5470670;25;20458;-51
2024/04/25 04:01:21;;;;;;;1.30;1.13;;;11.30;82.50;;;;;;5468810;25;20471;-48
2024/04/25 04:03:51;;;;;;;2.07;1.60;;;11.30;82.50;;;;;;5463006;25;21182;-48
2024/04/25 04:06:22;;;;;;;1.30;1.10;;;11.40;82.40;;;;;;5454674;25;20921;-48
2024/04/25 04:08:51;;;;;;;1.40;1.07;;;11.30;82.40;;;;;;5471492;25;20546;-48
2024/04/25 04:11:21;;;;;;;1.87;1.10;;;11.30;82.50;;;;;;5434996;26;20486;-47
2024/04/25 04:13:51;;;;;;;1.60;1.30;;;11.30;82.50;;;;;;5472246;25;21024;-49
2024/04/25 04:16:24;;;;;;;4.40;1.47;;;11.30;82.40;;;;;;5462819;25;20554;-48
2024/04/25 04:18:54;;;;;;;2.00;1.43;;;11.30;82.30;;;;;;5472361;25;20512;-47
2024/04/25 04:21:24;;;;;;;2.60;1.40;;;11.30;82.50;;;;;;5452475;25;20473;-48
2024/04/25 04:23:53;;;;;;;1.50;0.90;;;11.30;82.60;;;;;;5462789;25;20916;-47
2024/04/25 04:26:23;;;;;;;1.93;1.30;;;11.30;82.60;;;;;;5473427;25;20484;-48
2024/04/25 04:28:53;;;;;;;1.30;1.17;;;11.30;82.60;;;;;;5463491;25;20592;-48
2024/04/25 04:31:26;;;;;;;1.60;0.93;;;11.30;82.50;;;;;;5459649;25;20464;-49
2024/04/25 04:33:55;;;;;;;2.17;1.50;;;11.30;82.60;;;;;;5478269;25;20560;-49
2024/04/25 04:36:25;;;;;;;1.40;1.00;;;11.30;82.70;;;;;;5461910;25;20580;-49
2024/04/25 04:38:55;;;;;;;1.47;1.00;;;11.20;82.50;;;;;;5475449;25;20464;-48
2024/04/25 04:41:27;;;;;;;2.10;1.10;;;11.30;82.60;;;;;;5459008;25;20478;-48
2024/04/25 04:43:57;;;;;;;1.57;1.20;;;11.20;82.70;;;;;;5463833;25;20520;-48
2024/04/25 04:46:30;;;;;;;2.03;1.20;;;11.30;82.50;;;;;;5496745;25;20510;-47
2024/04/25 04:48:59;;;;;;;1.53;1.43;;;11.20;82.60;;;;;;5464407;25;20517;-48
2024/04/25 04:51:29;;;;;;;1.27;1.10;;;11.20;82.40;;;;;;5470171;25;20571;-49
2024/04/25 04:53:59;;;;;;;1.77;0.90;;;11.20;82.50;;;;;;5475182;25;21385;-47
2024/04/25 04:56:29;;;;;;;2.40;1.43;;;11.20;82.60;;;;;;5473721;25;20479;-48
2024/04/25 04:58:59;;;;;;;1.30;1.07;;;11.20;82.50;;;;;;5462872;25;20522;-48
2024/04/25 05:01:32;;;;;;;2.10;1.20;;;11.20;82.60;;;;;;5474835;25;20471;-49
2024/04/25 05:04:01;;;;;;;3.30;1.33;;;11.20;82.70;;;;;;5456712;26;21037;-49
2024/04/25 05:06:31;;;;;;;1.90;1.40;;;11.20;82.60;;;;;;5481224;25;20479;-47
2024/04/25 05:09:01;;;;;;;1.77;1.40;;;11.20;82.60;;;;;;5472568;25;20810;-47
2024/04/25 05:11:31;;;;;;;1.80;1.30;;;11.20;82.70;;;;;;5472829;25;20526;-47
2024/04/25 05:14:02;;;;;;;2.07;1.20;;;11.20;82.70;;;;;;5468335;25;20517;-47
2024/04/25 05:16:36;;;;;;;1.57;1.20;;;11.20;82.60;;;;;;5471148;25;20584;-46
2024/04/25 05:19:06;;;;;;;3.70;1.50;;;11.20;82.50;;;;;;5465103;25;20551;-47
2024/04/25 05:21:36;;;;;;;2.00;1.43;;;11.20;82.60;;;;;;5464373;25;20570;-48
2024/04/25 05:24:06;;;;;;;2.33;1.57;;;11.20;82.50;;;;;;5475181;25;20463;-47
2024/04/25 05:26:36;;;;;;;1.17;1.07;;;11.20;82.60;;;;;;5453960;26;20466;-48
2024/04/25 05:29:06;;;;;;;1.40;1.30;;;11.20;82.70;;;;;;5453100;26;20500;-48
2024/04/25 05:31:39;;;;;;;2.43;1.43;;;11.20;82.70;;;;;;5456058;26;20593;-48
2024/04/25 05:34:09;;;;;;;2.20;1.30;;;11.10;82.70;;;;;;5463969;25;20477;-48
2024/04/25 05:36:39;;;;;;;1.87;1.67;;;11.20;82.70;;;;;;5454075;26;20581;-48
2024/04/25 05:39:09;;;;;;;1.40;1.17;;;11.20;82.60;;;;;;5471537;26;20536;-47
2024/04/25 05:41:38;;;;;;;2.37;1.63;;;11.20;82.60;;;;;;5467826;25;20468;-48
2024/04/25 05:44:08;;;;;;;2.03;1.10;;;11.20;82.60;;;;;;5458312;25;20525;-49
2024/04/25 05:46:41;;;;;;;1.00;0.83;;;11.10;82.60;;;;;;5478189;25;20522;-50
2024/04/25 05:49:10;;;;;;;1.43;1.10;;;11.20;82.70;;;;;;5461754;25;20528;-49
2024/04/25 05:51:40;;;;;;;2.20;1.20;;;11.20;82.80;;;;;;5467425;25;20463;-48
2024/04/25 05:54:10;;;;;;;2.30;1.07;;;11.20;82.80;;;;;;5456779;25;20888;-47
2024/04/25 05:56:40;;;;;;;1.80;1.63;;;11.20;82.80;;;;;;5469762;25;20469;-48
2024/04/25 05:59:12;;;;;;;3.83;1.80;;;11.20;82.80;;;;;;5445728;26;20695;-49
2024/04/25 06:01:44;;;;;;;2.47;1.60;;;11.10;82.70;;;;;;5467607;25;20581;-49
2024/04/25 06:04:14;;;;;;;3.20;2.17;;;11.10;82.60;;;;;;5468398;25;20484;-48
2024/04/25 06:06:45;;;;;;;2.80;1.73;;;11.10;82.50;;;;;;5472494;25;20526;-47
2024/04/25 06:09:15;;;;;;;1.60;1.10;;;11.20;82.60;;;;;;5449812;25;20468;-49
2024/04/25 06:11:45;;;;;;;1.50;1.13;;;11.20;82.70;;;;;;5468587;25;20457;-49
2024/04/25 06:14:15;;;;;;;1.40;1.17;;;11.10;82.40;;;;;;5467634;25;20573;-48
2024/04/25 06:16:48;;;;;;;2.00;1.40;;;11.10;82.60;;;;;;5457494;25;20460;-49
2024/04/25 06:19:18;;;;;;;1.53;1.40;;;11.10;82.60;;;;;;5457144;25;20893;-49
2024/04/25 06:21:48;;;;;;;2.17;1.50;;;11.10;82.70;;;;;;5443257;25;20519;-47
2024/04/25 06:24:18;;;;;;;1.33;0.93;;;11.10;82.70;;;;;;5469731;25;20461;-48
2024/04/25 06:26:47;;;;;;;1.50;1.30;;;11.10;82.70;;;;;;5457612;25;20479;-47
2024/04/25 06:29:17;;;;;;;1.70;1.33;;;11.10;82.80;;;;;;5480170;25;20554;-48
2024/04/25 06:31:50;;;;;;;1.60;1.30;;;11.10;82.70;;;;;;5467094;25;20554;-48
2024/04/25 06:34:20;;;;;;;2.37;1.80;;;11.10;82.60;;;;;;5459019;25;20459;-47
2024/04/25 06:36:50;;;;;;;1.80;1.60;;;11.10;82.70;;;;;;5461673;25;21121;-51
2024/04/25 06:39:20;;;;;;;3.00;1.53;;;11.10;82.60;;;;;;5476311;25;20461;-48
2024/04/25 06:41:49;;;;;;;2.00;1.47;;;11.10;82.60;;;;;;5472652;25;20475;-47
2024/04/25 06:44:29;;;;;;;1.30;1.20;;;11.10;82.70;;;;;;5463568;25;20534;-49
2024/04/25 06:47:11;;;;;;;1.83;1.40;;;11.10;82.90;;;;;;5468669;25;20576;-48
2024/04/25 06:49:41;;;;;;;1.87;1.57;;;11.10;82.70;;;;;;5469836;25;20548;-47
2024/04/25 06:52:11;;;;;;;2.10;1.50;;;11.10;82.70;;;;;;5438112;25;20478;-49
2024/04/25 06:54:41;;;;;;;1.87;1.40;;;11.10;82.90;;;;;;5479075;25;20570;-49
2024/04/25 06:57:10;;;;;;;3.07;1.90;;;11.10;82.70;;;;;;5472966;25;20463;-47
2024/04/25 06:59:40;;;;;;;2.60;2.40;;;11.10;82.90;;;;;;5465180;25;20460;-47
2024/04/25 07:02:19;;;;;;;1.67;1.57;;;11.00;82.50;;;;;;5442187;26;20455;-48
2024/04/25 07:04:49;;;;;;;2.10;1.80;;;11.00;82.80;;;;;;5462199;25;20817;-47
2024/04/25 07:07:19;;;;;;;1.60;1.40;;;11.00;82.90;;;;;;5453408;26;20484;-48
2024/04/25 07:09:49;;;;;;;2.37;1.57;;;11.00;82.90;;;;;;5454233;26;20544;-47
2024/04/25 07:12:19;;;;;;;1.67;1.30;;;11.00;82.80;;;;;;5441515;25;20530;-47
2024/04/25 07:14:49;;;;;;;1.63;1.40;;;11.00;83.00;;;;;;5439673;26;20562;-48
2024/04/25 07:17:21;;;;;;;3.83;3.53;;;11.00;82.90;;;;;;5455765;25;20864;-47
2024/04/25 07:19:49;;;;;;;2.90;1.80;;;11.00;82.60;;;;;;5469015;25;20576;-48
2024/04/25 07:22:19;;;;;;;2.60;1.83;;;11.00;82.60;;;;;;5469429;25;20471;-48
2024/04/25 07:24:49;;;;;;;2.43;2.20;;;11.00;82.80;;;;;;5468560;25;21039;-47
2024/04/25 07:27:21;;;;;;;1.87;1.67;;;11.00;82.80;;;;;;5470828;25;21112;-48
2024/04/25 07:29:51;;;;;;;1.87;1.63;;;11.00;82.80;;;;;;5472191;25;20505;-47
2024/04/25 07:32:23;;;;;;;2.37;1.50;;;11.00;82.80;;;;;;5472482;25;20510;-48
2024/04/25 07:34:53;;;;;;;3.17;1.43;;;11.00;82.90;;;;;;5472449;25;20571;-48
2024/04/25 07:37:25;;;;;;;2.13;1.30;;;11.00;83.00;;;;;;5480399;25;20459;-48
2024/04/25 07:39:56;;;;;;;1.87;1.27;;;11.00;82.60;;;;;;5459381;25;20883;-48
2024/04/25 07:42:27;;;;;;;2.90;1.53;;;11.00;82.60;;;;;;5483401;25;20459;-49
2024/04/25 07:44:57;;;;;;;2.93;1.70;;;11.00;82.60;;;;;;5457439;25;20576;-48
2024/04/25 07:47:30;;;;;;;1.50;1.40;;;11.00;82.60;;;;;;5471875;25;20577;-51
2024/04/25 07:50:00;;;;;;;1.57;1.10;;;11.00;83.00;;;;;;5470345;25;20514;-51
2024/04/25 07:52:30;;;;;;;1.80;1.17;;;11.00;83.00;;;;;;5467850;25;20470;-48
2024/04/25 07:55:01;;;;;;;3.67;1.50;;;11.00;83.10;;;;;;5450402;25;20461;-49
2024/04/25 07:57:31;;;;;;;1.97;1.30;;;11.00;83.00;;;;;;5463607;25;20533;-48
2024/04/25 08:00:01;;;;;;;2.13;1.50;;;11.00;83.00;;;;;;5474524;26;20519;-48
2024/04/25 08:02:41;;;;;;;1.70;1.47;;;11.00;83.20;;;;;;5461833;25;20468;-49
2024/04/25 08:05:16;;;;;;;1.47;1.37;;;11.00;83.20;;;;;;5478319;26;20477;-47
2024/04/25 08:07:49;;;;;;;2.03;1.13;;;11.00;83.30;;;;;;5482284;26;20887;-47
2024/04/25 08:10:19;;;;;;;1.13;1.00;;;11.00;83.10;;;;;;5469793;25;20466;-48
2024/04/25 08:12:49;;;;;;;1.57;1.43;;;11.00;83.30;;;;;;5470993;25;20457;-48
2024/04/25 08:15:19;;;;;;;2.97;1.90;;;11.00;83.20;;;;;;5460337;25;20471;-46
2024/04/25 08:17:52;;;;;;;1.47;1.13;;;11.00;83.20;;;;;;5489530;25;20443;-47
2024/04/25 08:20:22;;;;;;;1.60;1.33;;;11.00;83.10;;;;;;5469925;25;21090;-47
2024/04/25 08:22:57;;;;;;;1.50;1.07;;;11.00;83.40;;;;;;5475652;26;20830;-48
2024/04/25 08:25:27;;;;;;;1.30;1.20;;;11.00;83.30;;;;;;5475809;26;20474;-48
2024/04/25 08:28:00;;;;;;;4.20;1.40;;;11.00;83.40;;;;;;5475302;26;20816;-49
2024/04/25 08:30:30;;;;;;;1.60;1.20;;;11.00;83.30;;;;;;5432813;26;21028;-48
2024/04/25 08:33:03;;;;;;;2.27;1.10;;;11.00;83.40;;;;;;5467304;26;20572;-48
2024/04/25 08:35:33;;;;;;;1.37;1.27;;;11.00;83.40;;;;;;5472419;25;20462;-47
2024/04/25 08:38:03;;;;;;;1.60;1.47;;;11.00;83.30;;;;;;5469610;25;20456;-47
2024/04/25 08:40:35;;;;;;;1.73;1.03;;;11.00;83.60;;;;;;5468964;25;20535;-48
2024/04/25 08:43:05;;;;;;;1.40;1.23;;;10.90;83.40;;;;;;5466954;25;20460;-48
2024/04/25 08:45:36;;;;;;;1.37;1.00;;;11.00;83.30;;;;;;5469603;25;20575;-47
2024/04/25 08:48:13;;;;;;;1.30;1.10;;;11.00;83.40;;;;;;5463416;25;20567;-47
2024/04/25 08:50:44;;;;;;;1.90;1.17;;;11.00;83.40;;;;;;5472170;25;20514;-47
2024/04/25 08:53:16;;;;;;;1.90;1.40;;;11.00;83.40;;;;;;5463123;25;20481;-49
2024/04/25 08:55:55;;;;;;;3.20;2.50;;;11.00;83.20;;;;;;5457800;25;20761;-47
2024/04/25 08:58:25;;;;;;;2.50;1.23;;;11.00;83.40;;;;;;5423513;26;20474;-48
2024/04/25 09:00:57;;;;;;;1.67;1.33;;;11.00;83.40;;;;;;5450431;25;20514;-48
2024/04/25 09:03:32;;;;;;;1.57;1.20;;;11.00;83.30;;;;;;5458560;25;20471;-48
2024/04/25 09:06:03;;;;;;;1.90;1.10;;;11.00;83.30;;;;;;5473405;25;20450;-48
2024/04/25 09:08:33;;;;;;;3.10;1.57;;;11.00;83.20;;;;;;5461830;25;20463;-47
2024/04/25 09:11:03;;;;;;;1.90;1.00;;;11.00;83.20;;;;;;5475769;25;21125;-48
2024/04/25 09:13:33;;;;;;;2.23;1.20;;;11.00;83.10;;;;;;5440844;25;20475;-48
2024/04/25 09:16:03;;;;;;;2.37;1.10;;;11.00;83.10;;;;;;5463783;25;20524;-48
2024/04/25 09:18:36;;;;;;;3.00;1.20;;;11.00;83.00;;;;;;5446209;26;20611;-48
2024/04/25 09:21:06;;;;;;;1.60;1.13;;;11.00;83.10;;;;;;5460711;25;20582;-48
2024/04/25 09:23:41;;;;;;;1.67;1.27;;;11.00;83.10;;;;;;5457256;25;21026;-48
2024/04/25 09:26:12;;;;;;;2.03;1.40;;;11.00;82.90;;;;;;5442510;25;20470;-48
2024/04/25 09:28:42;;;;;;;2.03;1.93;;;11.00;82.70;;;;;;5458388;25;20456;-48
2024/04/25 09:31:12;;;;;;;1.23;1.13;;;11.10;82.90;;;;;;5464996;26;20511;-48
2024/04/25 09:33:45;;;;;;;2.90;1.77;;;11.10;82.80;;;;;;5409925;26;20462;-48
2024/04/25 09:36:19;;;;;;;1.57;0.97;;;11.10;83.70;;;;;;5455271;26;20453;-48
2024/04/25 09:38:50;;;;;;;1.50;1.30;;;11.10;82.60;;;;;;5452698;26;20764;-48
2024/04/25 09:41:22;;;;;;;1.30;1.20;;;11.10;82.60;;;;;;5420822;26;20869;-47
2024/04/25 09:43:53;;;;;;;2.60;1.03;;;11.10;82.60;;;;;;5463539;25;20545;-52
2024/04/25 09:46:30;;;;;;;2.00;1.20;;;11.10;82.60;;;;;;5467713;25;20459;-48
2024/04/25 09:49:05;;;;;;;2.47;1.67;;;11.10;82.50;;;;;;5472530;25;21031;-48
2024/04/25 09:51:41;;;;;;;1.63;1.30;;;11.10;82.60;;;;;;5465684;25;21091;-47
2024/04/25 09:54:17;;;;;;;1.33;1.23;;;11.10;82.50;;;;;;5454271;25;20463;-46
2024/04/25 09:56:50;;;;;;;2.80;1.33;;;11.10;82.60;;;;;;5474283;25;20868;-47
2024/04/25 09:59:27;;;;;;;1.43;1.20;;;11.10;82.60;;;;;;5453614;25;20856;-47
2024/04/25 10:02:00;;;;;;;2.00;1.40;;;11.10;82.60;;;;;;5432302;25;20468;-46
2024/04/25 10:04:34;;;;;;;4.40;1.30;;;11.10;82.70;;;;;;5449717;25;20536;-47
2024/04/25 10:07:05;;;;;;;2.23;1.57;;;11.00;82.60;;;;;;5468660;25;20541;-46
2024/04/25 10:09:36;;;;;;;2.03;1.60;;;11.10;82.70;;;;;;5452361;25;20484;-46
2024/04/25 10:12:07;;;;;;;1.97;1.40;;;11.10;82.70;;;;;;5462307;25;20474;-47
2024/04/25 10:14:37;;;;;;;3.83;1.40;;;11.10;82.70;;;;;;5465921;25;20753;-47
2024/04/25 10:17:07;;;;;;;2.20;1.23;;;11.10;82.70;;;;;;5473836;25;20882;-47
2024/04/25 10:19:42;;;;;;;2.43;1.50;;;11.10;82.60;;;;;;5468223;25;20525;-47
2024/04/25 10:22:22;;;;;;;2.67;1.90;;;11.10;83.00;;;;;;5471307;25;20460;-47
2024/04/25 10:24:54;;;;;;;1.83;1.30;;;11.00;82.90;;;;;;5468111;25;20590;-47
2024/04/25 10:27:25;;;;;;;2.03;1.47;;;11.10;82.90;;;;;;5473320;26;20584;-47
2024/04/25 10:29:55;;;;;;;1.97;1.10;;;11.00;82.90;;;;;;5461988;25;20513;-47
2024/04/25 10:32:25;;;;;;;2.10;1.60;;;11.10;83.00;;;;;;5474817;26;20462;-47
2024/04/25 10:34:58;;;;;;;2.47;1.30;;;11.10;83.00;;;;;;5473439;25;21061;-46
2024/04/25 10:37:28;;;;;;;3.50;1.57;;;11.10;82.80;;;;;;5469575;25;20458;-46
2024/04/25 10:40:01;;;;;;;1.63;1.53;;;11.10;82.90;;;;;;5467748;25;20475;-47
2024/04/25 10:42:32;;;;;;;2.07;1.50;;;11.00;82.70;;;;;;5472065;25;21037;-47
2024/04/25 10:45:01;;;;;;;1.20;1.10;;;11.00;82.60;;;;;;5473367;25;20551;-49
2024/04/25 10:47:32;;;;;;;1.30;1.17;;;11.10;82.70;;;;;;5470468;25;20951;-48
2024/04/25 10:50:12;;;;;;;2.40;1.27;;;11.10;82.70;;;;;;5471601;25;20585;-47
2024/04/25 10:52:43;;;;;;;1.53;1.20;;;11.10;82.60;;;;;;5473117;25;20455;-47
2024/04/25 10:55:14;;;;;;;3.20;2.00;;;11.10;82.50;;;;;;5467184;25;20459;-48
2024/04/25 10:57:44;;;;;;;2.70;1.77;;;11.10;82.30;;;;;;5471548;25;20608;-50
2024/04/25 11:00:15;;;;;;;2.40;1.87;;;11.10;82.40;;;;;;5477282;25;20460;-48
2024/04/25 11:02:45;;;;;;;2.10;1.60;;;11.10;82.60;;;;;;5462009;25;20858;-47
2024/04/25 11:05:18;;;;;;;2.03;1.10;;;11.10;82.40;;;;;;5458928;25;20518;-47
2024/04/25 11:07:52;;;;;;;1.70;1.40;;;11.10;82.40;;;;;;5471866;25;20457;-47
2024/04/25 11:10:22;;;;;;;1.50;1.10;;;11.10;82.10;;;;;;5466193;25;20903;-46
2024/04/25 11:12:52;;;;;;;3.10;1.70;;;11.10;82.40;;;;;;5444678;25;20532;-46
2024/04/25 11:15:25;;;;;;;2.63;1.80;;;11.00;82.50;;;;;;5463049;25;20489;-46
2024/04/25 11:17:56;;;;;;;1.70;1.33;;;11.00;82.50;;;;;;5449100;25;21074;-47
2024/04/25 11:20:42;;;;;;;1.90;1.37;;;11.10;82.40;;;;;;5464183;25;20860;-49
2024/04/25 11:23:19;;;;;;;2.23;1.23;;;11.10;82.20;;;;;;5458337;25;21033;-48
2024/04/25 11:25:49;;;;;;;3.23;1.60;;;11.10;82.30;;;;;;5480872;25;20474;-48
2024/04/25 11:28:21;;;;;;;1.90;1.30;;;11.10;82.50;;;;;;5460887;25;22707;-47
2024/04/25 11:30:51;;;;;;;2.67;1.60;;;11.10;81.90;;;;;;5468006;25;20506;-48
2024/04/25 11:33:25;;;;;;;1.90;1.63;;;11.00;82.10;;;;;;5471745;26;20476;-47
2024/04/25 11:35:58;;;;;;;1.60;1.50;;;11.10;82.30;;;;;;5474156;26;20455;-48
2024/04/25 11:38:35;;;;;;;1.77;1.47;;;11.10;82.40;;;;;;5470198;26;20585;-48
2024/04/25 11:41:05;;;;;;;1.50;1.40;;;11.10;82.30;;;;;;5473911;26;20532;-48
2024/04/25 11:43:35;;;;;;;1.73;1.30;;;11.10;82.40;;;;;;5444339;26;21319;-48
2024/04/25 11:46:05;;;;;;;1.37;1.27;;;11.10;82.20;;;;;;5469011;26;20581;-48
2024/04/25 11:48:35;;;;;;;1.93;1.40;;;11.00;82.30;;;;;;5476592;26;20870;-47
2024/04/25 11:51:15;;;;;;;1.53;1.20;;;11.10;82.50;;;;;;5477652;26;20470;-47
2024/04/25 11:53:47;;;;;;;4.80;1.10;;;11.10;82.60;;;;;;5477386;26;20528;-47
2024/04/25 11:56:17;;;;;;;3.30;1.50;;;11.10;82.60;;;;;;5477401;26;20470;-48
2024/04/25 11:58:47;;;;;;;2.70;1.30;;;11.10;82.60;;;;;;5459564;26;20475;-48
2024/04/25 12:01:17;;;;;;;1.20;1.00;;;11.00;82.50;;;;;;5471288;26;20469;-51
2024/04/25 12:03:46;;;;;;;2.47;1.37;;;11.00;82.60;;;;;;5476374;26;20447;-47
2024/04/25 12:06:21;;;;;;;1.87;1.63;;;11.10;82.60;;;;;;5477962;26;20922;-51
2024/04/25 12:08:51;;;;;;;1.80;1.40;;;11.10;82.50;;;;;;5442050;26;20472;-48
2024/04/25 12:11:22;;;;;;;8.27;2.00;;;11.10;80.10;;;;;;5476315;26;20523;-51
2024/04/25 12:13:55;;;;;;;2.27;1.73;;;11.00;76.30;;;;;;5461589;26;20846;-51
2024/04/25 12:16:25;;;;;;;3.30;1.30;;;11.00;76.70;;;;;;5472163;26;20544;-49
2024/04/25 12:18:56;;;;;;;2.70;1.67;;;11.00;78.90;;;;;;5463400;26;20451;-49
2024/04/25 12:21:28;;;;;;;3.50;2.10;;;11.00;79.60;;;;;;5475239;26;20465;-47
2024/04/25 12:23:58;;;;;;;3.63;1.80;;;11.10;79.50;;;;;;5438780;26;21119;-47
2024/04/25 12:26:28;;;;;;;3.00;1.60;;;11.10;79.90;;;;;;5470899;26;20460;-47
2024/04/25 12:28:58;;;;;;;2.50;1.63;;;11.10;79.60;;;;;;5474299;26;20444;-48
2024/04/25 12:31:28;;;;;;;2.33;1.80;;;11.10;80.00;;;;;;5469430;26;20464;-47
2024/04/25 12:33:59;;;;;;;2.50;1.50;;;11.10;80.20;;;;;;5476363;26;20512;-47
2024/04/25 12:36:32;;;;;;;3.03;1.80;;;11.10;80.30;;;;;;5443474;26;20454;-47
2024/04/25 12:39:06;;;;;;;2.23;1.53;;;11.10;80.20;;;;;;5476461;26;20466;-47
2024/04/25 12:41:35;;;;;;;1.70;1.40;;;11.10;80.40;;;;;;5471541;26;20454;-47
2024/04/25 12:44:06;;;;;;;3.73;1.80;;;11.10;80.50;;;;;;5472245;26;20458;-46
2024/04/25 12:46:38;;;;;;;2.00;1.40;;;11.10;80.10;;;;;;5473753;26;20501;-47
2024/04/25 12:49:08;;;;;;;3.23;1.63;;;11.20;77.30;;;;;;5475934;26;20524;-46
2024/04/25 12:51:41;;;;;;;4.00;1.50;;;11.20;76.80;;;;;;5474047;26;21082;-47
2024/04/25 12:54:11;;;;;;;2.80;1.40;;;11.20;78.40;;;;;;5476122;26;20513;-47
2024/04/25 12:56:41;;;;;;;3.63;1.53;;;11.20;78.50;;;;;;5476809;26;20453;-47
2024/04/25 12:59:11;;;;;;;5.00;2.17;;;11.10;78.50;;;;;;5469455;26;20527;-46
2024/04/25 13:01:41;;;;;;;3.23;1.40;;;11.20;78.60;;;;;;5474305;26;20530;-47
2024/04/25 13:04:11;;;;;;;2.70;1.80;;;11.20;78.90;;;;;;5473705;26;20467;-47
2024/04/25 13:06:43;;;;;;;1.67;1.50;;;11.10;79.00;;;;;;5443778;26;20510;-47
2024/04/25 13:09:13;;;;;;;1.83;1.67;;;11.10;78.90;;;;;;5483284;26;20459;-47
2024/04/25 13:11:44;;;;;;;2.13;1.63;;;11.10;79.40;;;;;;5442195;26;20925;-47